Strona główna
METAR-TAF:

METAR-TAF

Lotnisko :

Port lotniczy Amami

Amami, Japonia

Szerokość geograficzna: 28-26N, Długość geograficzna: 129-43E, wysokość: 4 m

Aktualna obserwacja pogody

Raport powstał 1 godzina i 43 minut temu, godzina 10:00 UTC
Wiatr 2 kt z kierunków zmiennych
Temperatura 12°C
Wilgotność 71%
Ciśnienie 1026 hPa
Widzialność 10 km lub więcej
Mało chmury na wysokości 4000 ft
Rozproszone chmury na wysokości 5000 ft

METAR: RJKA 191000Z VRB02KT 9999 FEW040 SCT050 12/07 Q1026

czas: 20:43 (11:43 UTC)


TAF: brakujący

Obserwacja i prognoza pogody dla ponad 4000 lotnisk (raport METAR i TAF).

Dostępne stacje oznaczono żółtymi i czerwonymi punktami na mapie.

Najedź kursorem aby zobaczyć nazwę stacji.

Kliknij aby zobaczyć obserwacje i prognozy pogody.

Aby zmienić mapę: kliknij na zielony przycisk z czarnym krzyżykiem, aby powiększyć; na zielony przycisk z myślnikiem, aby pomniejszyć; na zielone strzałki, aby przejść do map sąsiednich.


METAR-TAF: